Time;durP1;ratioP1;P1;durP2;ratioP2;P2;SDS_P1;SDS_P2;PMS_P1;PMS_P2;Temp;Humidity;BMP_temperature;BMP_pressure;BME280_temperature;BME280_humidity;BME280_pressure;Samples;Min_cycle;Max_cycle;Signal;HPM_P1;HPM_P2
2022/01/25 00:28:40;;;;;;;15.57;8.07;;;-5.70;89.70;;;;;;4998689;28;20092;-69
2022/01/25 00:31:13;;;;;;;8.52;4.93;;;-5.80;88.80;;;;;;4998463;28;20030;-68
2022/01/25 00:33:48;;;;;;;8.50;5.10;;;-5.80;89.10;;;;;;5000901;28;20072;-70
2022/01/25 00:36:16;;;;;;;8.38;4.88;;;-5.90;88.80;;;;;;4995756;28;20033;-70
2022/01/25 00:38:43;;;;;;;9.77;5.10;;;-5.90;89.20;;;;;;4999393;28;20022;-70
2022/01/25 00:41:09;;;;;;;11.88;6.53;;;-6.00;89.60;;;;;;4999878;28;20034;-70
2022/01/25 00:43:35;;;;;;;9.50;4.85;;;-6.00;90.10;;;;;;5000730;28;20048;-70
2022/01/25 00:46:05;;;;;;;14.07;5.43;;;-6.00;89.90;;;;;;4999967;28;20099;-71
2022/01/25 00:48:43;;;;;;;8.18;5.03;;;-6.00;89.60;;;;;;4999217;28;20034;-70
2022/01/25 00:56:29;;;;;;;12.68;6.57;;;-5.90;89.70;;;;;;4997726;28;20177;-69
2022/01/25 00:58:54;;;;;;;10.88;6.03;;;-5.90;90.00;;;;;;5004404;28;20037;-69
2022/01/25 01:01:21;;;;;;;17.13;7.32;;;-6.00;89.60;;;;;;4997899;28;20034;-69
2022/01/25 01:03:46;;;;;;;15.60;7.75;;;-6.00;90.00;;;;;;4996835;28;22135;-69
2022/01/25 01:06:12;;;;;;;10.27;5.25;;;-5.90;90.30;;;;;;4999179;28;20037;-69
2022/01/25 01:08:39;;;;;;;8.68;5.25;;;-5.90;89.90;;;;;;4999575;28;20560;-70
2022/01/25 01:11:11;;;;;;;10.00;5.50;;;-6.00;88.70;;;;;;4997557;28;20032;-70
2022/01/25 01:30:24;;;;;;;8.65;5.15;;;-6.20;90.00;;;;;;4998582;28;20053;-68
2022/01/25 01:43:29;;;;;;;12.75;6.13;;;-6.20;90.20;;;;;;5001144;28;20594;-70
2022/01/25 01:48:35;;;;;;;16.83;8.35;;;-6.00;90.00;;;;;;5001247;28;20058;-67
2022/01/25 01:51:15;;;;;;;10.00;6.28;;;-5.90;90.50;;;;;;5003491;28;20089;-69
2022/01/25 01:53:44;;;;;;;16.63;7.95;;;-5.80;90.30;;;;;;4997595;28;20029;-69
2022/01/25 01:56:10;;;;;;;16.35;7.97;;;-5.80;90.30;;;;;;5003891;28;20056;-69
2022/01/25 01:58:38;;;;;;;10.13;5.80;;;-5.80;90.40;;;;;;5002581;28;20030;-69
2022/01/25 02:01:11;;;;;;;11.93;5.15;;;-5.80;90.20;;;;;;5000387;28;20034;-70
2022/01/25 02:03:36;;;;;;;12.30;6.45;;;-5.80;90.30;;;;;;5002466;28;20044;-68
2022/01/25 02:06:02;;;;;;;10.90;6.57;;;-5.90;90.10;;;;;;5000674;28;20628;-68
2022/01/25 02:08:28;;;;;;;12.07;6.82;;;-5.90;90.40;;;;;;5001272;28;20057;-69
2022/01/25 02:10:54;;;;;;;15.90;7.63;;;-5.90;90.50;;;;;;5001239;28;20042;-69
2022/01/25 02:13:23;;;;;;;12.00;5.93;;;-5.80;90.70;;;;;;4999809;28;20035;-69
2022/01/25 02:15:50;;;;;;;10.00;5.40;;;-5.80;89.60;;;;;;4998285;28;20149;-69
2022/01/25 02:23:46;;;;;;;11.05;5.85;;;-6.00;90.20;;;;;;5001118;28;20115;-68
2022/01/25 02:26:12;;;;;;;9.00;5.22;;;-6.00;90.40;;;;;;5000561;28;20030;-69
2022/01/25 02:28:41;;;;;;;11.00;5.60;;;-5.90;90.70;;;;;;5001715;28;20030;-68
2022/01/25 02:31:09;;;;;;;10.63;6.10;;;-5.90;90.80;;;;;;4999113;28;20104;-69
2022/01/25 02:33:38;;;;;;;11.38;5.70;;;-5.90;91.00;;;;;;5000786;28;20686;-68
2022/01/25 02:36:11;;;;;;;12.27;7.00;;;-5.90;91.30;;;;;;4997630;28;20046;-68
2022/01/25 02:38:36;;;;;;;11.65;7.13;;;-5.80;91.50;;;;;;4998495;28;20544;-69
2022/01/25 02:41:03;;;;;;;8.40;6.03;;;-5.70;91.60;;;;;;5000316;28;20030;-69
2022/01/25 02:43:29;;;;;;;13.77;7.63;;;-5.70;91.90;;;;;;5000020;28;20034;-69
2022/01/25 02:49:01;;;;;;;11.90;6.45;;;-5.60;92.10;;;;;;4998835;28;20037;-68
2022/01/25 02:51:37;;;;;;;12.98;7.40;;;-5.70;92.20;;;;;;4998307;28;20520;-68
2022/01/25 02:54:07;;;;;;;14.05;7.13;;;-5.80;92.50;;;;;;4996980;28;20044;-68
2022/01/25 02:56:34;;;;;;;11.50;6.55;;;-5.80;93.00;;;;;;4998511;28;20034;-67
2022/01/25 02:59:00;;;;;;;12.80;7.13;;;-5.90;93.30;;;;;;4998053;28;20026;-69
2022/01/25 03:01:28;;;;;;;15.00;7.57;;;-5.90;93.90;;;;;;5001310;28;20040;-68
2022/01/25 03:03:54;;;;;;;14.80;9.27;;;-5.70;94.30;;;;;;4997386;28;20120;-68
2022/01/25 03:06:22;;;;;;;15.52;8.77;;;-5.50;94.00;;;;;;4997869;28;20042;-68
2022/01/25 03:08:49;;;;;;;15.73;8.55;;;-5.30;93.90;;;;;;4998438;28;20743;-68
2022/01/25 03:11:17;;;;;;;14.55;9.05;;;-5.20;94.00;;;;;;4995789;28;20029;-69
2022/01/25 03:13:53;;;;;;;15.70;8.52;;;-5.00;94.00;;;;;;4998828;28;20018;-69
2022/01/25 03:22:17;;;;;;;16.73;9.48;;;-4.70;94.00;;;;;;4997775;28;20121;-68
2022/01/25 03:24:43;;;;;;;15.68;9.40;;;-4.70;94.10;;;;;;4997821;28;20463;-69
2022/01/25 03:27:09;;;;;;;16.95;8.82;;;-4.60;94.50;;;;;;4997027;28;20381;-68
2022/01/25 03:29:35;;;;;;;12.98;8.50;;;-4.50;94.80;;;;;;4998649;28;20025;-69
2022/01/25 03:32:00;;;;;;;11.88;7.32;;;-4.40;94.90;;;;;;4996745;28;20476;-69
2022/01/25 03:34:26;;;;;;;13.90;8.05;;;-4.40;94.90;;;;;;4998336;28;20910;-69
2022/01/25 03:36:51;;;;;;;12.77;8.27;;;-4.30;94.50;;;;;;5000936;28;20104;-69
2022/01/25 03:39:17;;;;;;;17.73;8.45;;;-4.20;94.40;;;;;;4996005;28;20038;-69
2022/01/25 03:41:43;;;;;;;16.27;9.73;;;-4.20;94.40;;;;;;4998899;28;20465;-68
2022/01/25 03:44:09;;;;;;;18.05;9.13;;;-4.20;94.40;;;;;;4997542;28;20077;-69
2022/01/25 03:46:41;;;;;;;14.68;8.88;;;-4.20;94.60;;;;;;4998469;28;20384;-69
2022/01/25 03:51:51;;;;;;;14.85;8.25;;;-4.10;95.00;;;;;;4998445;28;20041;-69
2022/01/25 03:54:17;;;;;;;12.88;8.75;;;-4.00;94.90;;;;;;4997336;28;20034;-68
2022/01/25 03:56:44;;;;;;;15.75;9.65;;;-3.90;94.70;;;;;;4997039;28;20111;-68
2022/01/25 03:59:10;;;;;;;15.52;8.57;;;-3.80;94.70;;;;;;4995510;28;20111;-69
2022/01/25 04:01:36;;;;;;;14.25;8.75;;;-3.80;94.80;;;;;;4993300;28;20034;-69
2022/01/25 04:04:07;;;;;;;14.82;8.68;;;-3.80;95.30;;;;;;4997657;28;20041;-69
2022/01/25 04:06:34;;;;;;;18.13;8.57;;;-3.70;94.70;;;;;;4996842;28;20029;-69
2022/01/25 04:09:03;;;;;;;14.65;8.93;;;-3.60;94.60;;;;;;4997530;28;20037;-68
2022/01/25 04:11:28;;;;;;;16.63;10.02;;;-3.60;94.80;;;;;;4998705;28;20063;-69
2022/01/25 04:13:57;;;;;;;19.42;9.60;;;-3.60;95.00;;;;;;4998255;28;20042;-69
2022/01/25 04:16:30;;;;;;;20.55;11.73;;;-3.50;94.80;;;;;;4998866;28;20030;-69
2022/01/25 04:21:41;;;;;;;18.00;11.77;;;-3.30;94.70;;;;;;4999486;28;20037;-69
2022/01/25 04:26:54;;;;;;;20.65;12.85;;;-3.20;94.70;;;;;;5000081;28;20036;-69
2022/01/25 04:29:19;;;;;;;22.95;13.57;;;-3.20;94.90;;;;;;4997116;28;20499;-68
2022/01/25 04:31:45;;;;;;;22.23;13.88;;;-3.10;95.10;;;;;;4999488;28;20546;-68
2022/01/25 04:48:46;;;;;;;19.30;12.85;;;-3.00;95.20;;;;;;5000719;28;20092;-69
2022/01/25 04:53:16;;;;;;;20.73;11.20;;;-2.80;95.60;;;;;;4996244;28;20132;-69
2022/01/25 04:55:57;;;;;;;19.67;10.70;;;-2.70;95.80;;;;;;4998202;28;20092;-68
2022/01/25 04:58:31;;;;;;;16.95;9.93;;;-2.70;95.80;;;;;;4999832;28;20034;-67
2022/01/25 05:00:57;;;;;;;15.75;10.20;;;-2.70;95.40;;;;;;4996891;28;20038;-68
2022/01/25 05:03:27;;;;;;;16.50;9.23;;;-2.70;95.40;;;;;;4996782;28;20037;-70
2022/01/25 05:08:44;;;;;;;19.85;9.35;;;-2.80;95.80;;;;;;4997636;28;20068;-69
2022/01/25 05:16:06;;;;;;;15.43;8.90;;;-2.60;96.00;;;;;;5001178;28;20036;-71
2022/01/25 05:18:40;;;;;;;14.00;9.07;;;-2.60;96.10;;;;;;5001186;28;20034;-69
2022/01/25 05:23:50;;;;;;;15.20;9.52;;;-2.60;96.10;;;;;;5003006;28;20057;-69
2022/01/25 05:26:16;;;;;;;18.13;10.32;;;-2.50;96.30;;;;;;4999032;28;20662;-69
2022/01/25 05:28:42;;;;;;;19.10;9.88;;;-2.50;96.50;;;;;;5008066;28;20029;-68
2022/01/25 05:31:07;;;;;;;18.98;10.70;;;-2.50;96.50;;;;;;5003351;28;20480;-70
2022/01/25 05:33:33;;;;;;;23.08;13.45;;;-2.50;96.40;;;;;;5000262;28;20497;-70
2022/01/25 05:35:58;;;;;;;22.98;13.80;;;-2.40;96.40;;;;;;5003606;28;20584;-70
2022/01/25 05:38:24;;;;;;;26.30;14.35;;;-2.40;96.30;;;;;;5006168;28;20037;-70
2022/01/25 05:40:59;;;;;;;20.10;12.05;;;-2.40;96.40;;;;;;5004032;28;20133;-70
2022/01/25 05:46:02;;;;;;;20.20;11.75;;;-2.30;96.10;;;;;;5003438;28;20053;-70
2022/01/25 05:48:29;;;;;;;19.42;12.73;;;-2.30;96.10;;;;;;5004276;28;20077;-71
2022/01/25 05:50:56;;;;;;;21.67;12.68;;;-2.20;95.80;;;;;;5004334;28;20092;-70
2022/01/25 05:53:22;;;;;;;21.02;13.68;;;-2.10;95.80;;;;;;5002509;28;20511;-71
2022/01/25 05:55:49;;;;;;;23.25;13.73;;;-2.10;95.60;;;;;;5002653;28;20112;-70
2022/01/25 05:58:14;;;;;;;24.98;15.13;;;-2.10;95.70;;;;;;5014747;28;20401;-71
2022/01/25 06:00:40;;;;;;;27.63;16.00;;;-2.00;95.70;;;;;;5002850;28;20099;-71
2022/01/25 06:03:07;;;;;;;27.05;15.50;;;-2.00;95.50;;;;;;5002769;28;20030;-70
2022/01/25 06:05:33;;;;;;;28.27;16.48;;;-1.90;95.60;;;;;;5006006;28;20440;-71
2022/01/25 06:07:59;;;;;;;29.77;17.45;;;-1.90;95.70;;;;;;5004387;28;20032;-70
2022/01/25 06:10:25;;;;;;;98.00;41.08;;;-1.90;95.70;;;;;;4996701;28;20034;-70
2022/01/25 06:12:50;;;;;;;45.40;23.58;;;-2.00;96.10;;;;;;5002958;28;20080;-70
2022/01/25 06:15:16;;;;;;;46.67;27.25;;;-1.90;96.10;;;;;;5003233;28;20029;-69
2022/01/25 06:17:42;;;;;;;54.08;30.17;;;-1.90;95.90;;;;;;4998407;28;20053;-65
2022/01/25 06:20:09;;;;;;;64.47;35.42;;;-1.80;96.00;;;;;;5002230;28;20544;-70
2022/01/25 06:22:35;;;;;;;96.93;47.60;;;-1.70;95.70;;;;;;5001001;28;20026;-70
2022/01/25 06:25:00;;;;;;;108.75;51.65;;;-1.60;95.50;;;;;;4998898;28;20030;-70
2022/01/25 06:27:26;;;;;;;125.03;61.13;;;-1.50;95.20;;;;;;5002247;28;20107;-70
2022/01/25 06:29:53;;;;;;;59.85;33.42;;;-1.50;95.20;;;;;;5002105;28;20085;-70
2022/01/25 06:32:19;;;;;;;59.38;32.17;;;-1.50;95.40;;;;;;5001095;28;20073;-71
2022/01/25 06:34:46;;;;;;;60.58;31.63;;;-1.40;95.30;;;;;;5004382;28;20041;-70
2022/01/25 06:37:13;;;;;;;67.68;35.15;;;-1.50;95.60;;;;;;5006884;28;20551;-70
2022/01/25 06:39:40;;;;;;;62.83;34.60;;;-1.50;95.80;;;;;;5004312;28;20022;-70
2022/01/25 06:42:07;;;;;;;57.95;34.38;;;-1.40;95.90;;;;;;5003630;28;20030;-70
2022/01/25 06:44:34;;;;;;;39.40;23.15;;;-1.30;96.00;;;;;;5001261;28;20099;-70
2022/01/25 06:47:01;;;;;;;21.52;14.00;;;-1.40;96.00;;;;;;5006767;28;20033;-70
2022/01/25 06:49:26;;;;;;;20.98;13.13;;;-1.30;96.00;;;;;;5002941;28;20049;-70
2022/01/25 06:51:52;;;;;;;22.92;15.63;;;-1.40;96.10;;;;;;5005098;28;20042;-69
2022/01/25 06:54:18;;;;;;;40.60;26.60;;;-1.40;96.20;;;;;;5002538;28;20040;-68
2022/01/25 06:56:44;;;;;;;20.42;14.05;;;-1.40;96.30;;;;;;5003380;28;20030;-69
2022/01/25 06:59:09;;;;;;;19.52;12.50;;;-1.40;96.20;;;;;;5003968;28;20112;-69
2022/01/25 07:01:35;;;;;;;23.80;14.85;;;-1.50;96.30;;;;;;5005671;28;20025;-70
2022/01/25 07:04:01;;;;;;;23.75;15.75;;;-1.40;96.60;;;;;;5004032;28;20046;-70
2022/01/25 07:06:28;;;;;;;26.17;15.20;;;-1.50;96.60;;;;;;5005227;28;20038;-70
2022/01/25 07:08:53;;;;;;;25.98;15.60;;;-1.60;96.90;;;;;;4998621;28;20040;-71
2022/01/25 07:11:19;;;;;;;26.20;15.90;;;-1.60;97.00;;;;;;5005122;28;20022;-70
2022/01/25 07:13:46;;;;;;;27.35;16.60;;;-1.50;96.90;;;;;;4996018;28;20054;-70
2022/01/25 07:16:11;;;;;;;28.33;16.42;;;-1.50;97.10;;;;;;5004108;28;20486;-70
2022/01/25 07:18:37;;;;;;;29.63;18.73;;;-1.50;97.10;;;;;;5001018;28;20026;-70
2022/01/25 07:21:03;;;;;;;29.58;18.13;;;-1.40;97.00;;;;;;4999582;28;20030;-70
2022/01/25 07:23:29;;;;;;;28.58;16.80;;;-1.50;97.10;;;;;;4998016;28;20058;-70
2022/01/25 07:25:55;;;;;;;31.95;18.40;;;-1.40;97.00;;;;;;4998913;28;20038;-70
2022/01/25 07:28:22;;;;;;;34.67;19.65;;;-1.40;96.90;;;;;;5004479;28;20045;-69
2022/01/25 07:30:48;;;;;;;31.48;18.38;;;-1.30;97.10;;;;;;4997943;28;20386;-67
2022/01/25 07:33:14;;;;;;;30.58;18.63;;;-1.20;97.00;;;;;;5001442;28;20030;-68
2022/01/25 07:35:40;;;;;;;27.38;17.23;;;-1.10;96.90;;;;;;4998568;28;20072;-70
2022/01/25 07:38:06;;;;;;;30.15;18.50;;;-1.10;96.70;;;;;;4997983;28;20130;-69
2022/01/25 07:40:34;;;;;;;32.22;18.92;;;-1.10;96.70;;;;;;4998198;28;20022;-70
2022/01/25 07:43:00;;;;;;;32.90;19.45;;;-1.00;96.80;;;;;;5001872;28;20040;-70
2022/01/25 07:45:26;;;;;;;32.67;18.10;;;-1.00;96.80;;;;;;5000841;28;20042;-69
2022/01/25 07:47:52;;;;;;;31.52;18.48;;;-0.90;96.60;;;;;;5001544;28;20030;-69
2022/01/25 07:50:18;;;;;;;27.08;18.40;;;-0.80;96.60;;;;;;4997859;28;20030;-69
2022/01/25 07:52:44;;;;;;;32.13;18.42;;;-0.70;96.40;;;;;;4999352;28;20041;-69
2022/01/25 07:55:10;;;;;;;28.70;17.83;;;-0.70;96.40;;;;;;4999757;28;20060;-69
2022/01/25 07:57:35;;;;;;;27.30;17.83;;;-0.70;96.40;;;;;;5001576;28;20044;-69
2022/01/25 08:00:01;;;;;;;30.17;19.00;;;-0.70;96.30;;;;;;5000160;28;20492;-69
2022/01/25 08:02:27;;;;;;;29.45;17.88;;;-0.70;96.70;;;;;;5001534;28;20045;-69
2022/01/25 08:04:53;;;;;;;30.70;17.52;;;-0.60;96.30;;;;;;5002097;28;20084;-70
2022/01/25 08:07:18;;;;;;;29.38;18.88;;;-0.50;96.40;;;;;;5002068;28;20025;-70
2022/01/25 08:09:44;;;;;;;28.10;18.50;;;-0.50;96.30;;;;;;4998371;28;20105;-70
2022/01/25 08:12:11;;;;;;;34.67;19.92;;;-0.50;96.40;;;;;;5000960;28;20374;-70
2022/01/25 08:14:41;;;;;;;33.47;19.85;;;-0.40;96.30;;;;;;5000556;28;20041;-70
2022/01/25 08:17:07;;;;;;;37.13;20.80;;;-0.30;96.30;;;;;;5003989;28;20026;-69
2022/01/25 08:19:32;;;;;;;34.05;20.63;;;-0.20;96.40;;;;;;4996901;28;20034;-68
2022/01/25 08:21:58;;;;;;;32.85;21.20;;;-0.20;96.10;;;;;;5002293;28;20045;-70
2022/01/25 08:24:25;;;;;;;37.17;21.48;;;-0.20;96.20;;;;;;5000705;28;20581;-70
2022/01/25 08:26:51;;;;;;;33.95;20.95;;;-0.20;96.40;;;;;;4999276;28;20032;-70
2022/01/25 08:29:17;;;;;;;35.67;21.38;;;-0.10;96.30;;;;;;4998703;28;20034;-70
2022/01/25 08:31:43;;;;;;;32.15;20.70;;;0.00;96.20;;;;;;5001150;28;20041;-70
2022/01/25 08:34:11;;;;;;;29.05;18.40;;;0.10;96.10;;;;;;5003148;28;20108;-70
2022/01/25 08:36:38;;;;;;;31.63;19.20;;;0.20;96.20;;;;;;5003600;28;20026;-69
2022/01/25 08:39:04;;;;;;;35.90;20.98;;;0.30;95.90;;;;;;5000797;28;20037;-70
2022/01/25 08:41:30;;;;;;;34.30;20.70;;;0.30;95.90;;;;;;5001715;28;20022;-70
2022/01/25 08:43:55;;;;;;;33.70;20.20;;;0.40;95.70;;;;;;4999868;28;20493;-70
2022/01/25 08:46:21;;;;;;;32.38;20.10;;;0.40;96.00;;;;;;5001379;28;20068;-70
2022/01/25 08:48:47;;;;;;;28.65;17.83;;;0.40;95.80;;;;;;4999027;28;20033;-70
2022/01/25 08:51:14;;;;;;;28.63;18.20;;;0.50;95.90;;;;;;4998678;28;20195;-70
2022/01/25 08:53:40;;;;;;;27.25;16.88;;;0.60;95.80;;;;;;5001385;28;20040;-70
2022/01/25 08:56:06;;;;;;;25.73;16.95;;;0.60;95.80;;;;;;5000181;28;20061;-69
2022/01/25 08:58:32;;;;;;;25.23;16.63;;;0.70;95.80;;;;;;4996392;28;20130;-70
2022/01/25 09:00:58;;;;;;;29.33;17.52;;;0.70;95.70;;;;;;4997088;28;20141;-70
2022/01/25 09:03:24;;;;;;;26.52;17.35;;;0.70;95.60;;;;;;4995902;28;20893;-69
2022/01/25 09:05:49;;;;;;;27.88;17.50;;;0.80;95.70;;;;;;4996594;28;20503;-69
2022/01/25 09:08:21;;;;;;;29.52;18.35;;;0.80;96.00;;;;;;5001321;28;20034;-69
2022/01/25 09:10:50;;;;;;;24.52;16.70;;;0.80;95.90;;;;;;4997957;28;20073;-68
2022/01/25 09:13:17;;;;;;;25.05;16.17;;;0.90;95.70;;;;;;5000726;28;20034;-69
2022/01/25 09:15:43;;;;;;;30.48;18.80;;;1.00;95.70;;;;;;4996700;28;20030;-70
2022/01/25 09:18:08;;;;;;;25.52;17.33;;;1.00;95.70;;;;;;5000235;28;20087;-70
2022/01/25 09:20:34;;;;;;;26.42;17.70;;;1.10;95.60;;;;;;4998496;28;20026;-70
2022/01/25 09:23:00;;;;;;;27.02;17.45;;;1.30;95.60;;;;;;4999147;28;20038;-69
2022/01/25 09:25:26;;;;;;;27.02;17.27;;;1.40;95.40;;;;;;5001812;28;20065;-70
2022/01/25 09:27:51;;;;;;;30.92;19.30;;;1.50;95.20;;;;;;4999346;28;20369;-70
2022/01/25 09:30:17;;;;;;;36.40;20.45;;;1.30;95.30;;;;;;4997802;28;20045;-70
2022/01/25 09:32:43;;;;;;;40.08;24.02;;;1.30;95.80;;;;;;5000842;28;20361;-69
2022/01/25 09:35:09;;;;;;;36.88;21.92;;;1.50;95.50;;;;;;5001813;28;20524;-70
2022/01/25 09:37:34;;;;;;;24.23;16.30;;;1.70;95.60;;;;;;4997281;28;20050;-70
2022/01/25 09:40:01;;;;;;;26.65;17.17;;;1.90;95.30;;;;;;4997602;28;20019;-70
2022/01/25 09:42:29;;;;;;;24.83;15.45;;;2.00;95.00;;;;;;4998604;28;20065;-70
2022/01/25 09:44:54;;;;;;;25.83;16.30;;;2.10;94.70;;;;;;4999302;28;20046;-70
2022/01/25 09:47:20;;;;;;;22.92;15.35;;;2.20;94.40;;;;;;4996173;28;20034;-70
2022/01/25 09:49:46;;;;;;;23.15;15.32;;;2.30;94.10;;;;;;4998710;28;20489;-70
2022/01/25 09:52:13;;;;;;;27.92;17.10;;;2.50;93.90;;;;;;4997989;28;20134;-70
2022/01/25 09:54:38;;;;;;;27.83;18.92;;;2.50;93.90;;;;;;4999081;28;20716;-70
2022/01/25 09:57:05;;;;;;;22.73;15.63;;;2.70;93.70;;;;;;5000204;28;20076;-68
2022/01/25 09:59:31;;;;;;;23.83;15.82;;;2.70;93.50;;;;;;4998706;28;20493;-70
2022/01/25 10:01:58;;;;;;;27.38;17.10;;;2.70;93.20;;;;;;5003298;28;20033;-70
2022/01/25 10:04:38;;;;;;;25.10;16.27;;;2.80;93.20;;;;;;5003416;28;20113;-70
2022/01/25 10:07:05;;;;;;;23.98;16.40;;;2.50;93.20;;;;;;5004647;28;20481;-69
2022/01/25 10:09:38;;;;;;;23.95;15.77;;;2.50;93.60;;;;;;5001140;28;20750;-69
2022/01/25 10:12:17;;;;;;;21.75;14.90;;;2.60;93.50;;;;;;4999980;28;20112;-69
2022/01/25 10:15:15;;;;;;;24.50;15.63;;;2.80;93.30;;;;;;5003334;28;20124;-69
2022/01/25 10:17:43;;;;;;;22.48;14.95;;;2.80;93.10;;;;;;5006563;28;20698;-69
2022/01/25 10:20:29;;;;;;;23.45;16.25;;;2.90;93.00;;;;;;5001643;28;20042;-69
2022/01/25 10:22:59;;;;;;;25.42;16.80;;;3.00;92.80;;;;;;5000251;28;20022;-69
2022/01/25 10:25:37;;;;;;;25.95;18.52;;;3.10;92.70;;;;;;5001982;28;20481;-69
2022/01/25 10:28:04;;;;;;;25.63;16.92;;;3.10;92.70;;;;;;5001721;28;20448;-69
2022/01/25 10:30:50;;;;;;;23.80;15.98;;;3.10;92.70;;;;;;5004624;28;20032;-69
2022/01/25 10:33:20;;;;;;;28.70;16.70;;;3.20;92.60;;;;;;5006176;28;20415;-70
2022/01/25 10:35:46;;;;;;;22.33;14.98;;;3.30;92.40;;;;;;5001045;28;20032;-69
2022/01/25 10:38:20;;;;;;;24.95;14.70;;;3.30;92.30;;;;;;5003940;28;20038;-69
2022/01/25 10:40:57;;;;;;;21.83;14.93;;;3.20;92.10;;;;;;5004198;28;20121;-69
2022/01/25 10:43:25;;;;;;;47.30;34.58;;;3.10;92.50;;;;;;5005265;28;20032;-70
2022/01/25 10:46:10;;;;;;;28.60;15.93;;;2.90;92.80;;;;;;5004232;28;20100;-69
2022/01/25 10:48:38;;;;;;;38.25;29.42;;;2.60;93.20;;;;;;5003945;28;20025;-69
2022/01/25 10:51:14;;;;;;;22.55;15.75;;;2.60;93.50;;;;;;5002739;28;20054;-69
2022/01/25 10:53:41;;;;;;;24.35;17.05;;;2.80;93.40;;;;;;4988430;28;20783;-69
2022/01/25 10:56:08;;;;;;;23.52;17.33;;;3.00;93.10;;;;;;4973237;28;20054;-69
2022/01/25 10:58:42;;;;;;;24.00;16.60;;;3.10;93.00;;;;;;4990587;28;20156;-69
2022/01/25 11:01:10;;;;;;;25.27;17.48;;;2.80;93.20;;;;;;4988738;28;20050;-67
2022/01/25 11:03:42;;;;;;;25.63;16.55;;;2.70;93.60;;;;;;4982176;28;20188;-69
2022/01/25 11:06:11;;;;;;;25.30;17.45;;;2.80;93.80;;;;;;4991147;28;20884;-68
2022/01/25 11:08:39;;;;;;;21.23;14.88;;;2.70;94.20;;;;;;4991835;28;20683;-69
2022/01/25 11:11:09;;;;;;;20.60;14.32;;;2.60;94.50;;;;;;4991436;28;21696;-68
2022/01/25 11:13:37;;;;;;;25.40;14.93;;;2.70;94.80;;;;;;4991488;28;20137;-68
2022/01/25 11:16:06;;;;;;;20.92;12.27;;;2.80;94.90;;;;;;4990094;28;20050;-69
2022/01/25 11:18:32;;;;;;;17.75;11.70;;;2.90;94.90;;;;;;4992095;28;20050;-69
2022/01/25 11:21:04;;;;;;;20.38;11.93;;;3.00;95.10;;;;;;4990807;28;20046;-68
2022/01/25 11:23:34;;;;;;;;;;;3.10;95.00;;;;;;5007199;28;20451;-68
2022/01/25 11:26:02;;;;;;;18.02;11.77;;;3.00;94.90;;;;;;4992169;28;20311;-68
2022/01/25 11:28:31;;;;;;;17.80;11.90;;;3.10;95.10;;;;;;4986706;28;20085;-69
2022/01/25 11:31:00;;;;;;;21.25;13.80;;;3.10;95.10;;;;;;4990437;28;20057;-68
2022/01/25 11:33:28;;;;;;;20.58;13.73;;;3.20;95.20;;;;;;4991613;28;20053;-69
2022/01/25 11:35:54;;;;;;;18.08;12.65;;;3.40;95.00;;;;;;4993086;28;20689;-69
2022/01/25 11:38:38;;;;;;;17.98;12.32;;;3.60;94.90;;;;;;4988244;28;20046;-69
2022/01/25 11:41:10;;;;;;;26.45;16.85;;;3.90;94.60;;;;;;4989045;28;20109;-68
2022/01/25 11:43:36;;;;;;;20.33;15.00;;;4.10;94.30;;;;;;4991632;28;20513;-68
2022/01/25 11:46:05;;;;;;;20.65;14.20;;;4.10;93.80;;;;;;4989925;28;20077;-69
2022/01/25 11:48:38;;;;;;;20.13;12.85;;;4.20;93.40;;;;;;4990724;28;20066;-68
2022/01/25 11:51:12;;;;;;;21.77;14.52;;;4.20;93.30;;;;;;4991908;28;20142;-69
2022/01/25 11:53:42;;;;;;;21.85;13.25;;;4.30;93.20;;;;;;4991523;28;20054;-69
2022/01/25 11:56:10;;;;;;;21.95;13.32;;;4.30;93.00;;;;;;4980610;28;20057;-69
2022/01/25 11:58:36;;;;;;;18.58;12.30;;;4.30;93.10;;;;;;4992633;28;20058;-69
2022/01/25 12:01:17;;;;;;;19.65;11.80;;;4.30;93.00;;;;;;4993115;28;20042;-70
2022/01/25 12:03:52;;;;;;;21.30;12.30;;;4.40;93.10;;;;;;4993331;28;20053;-70
2022/01/25 12:06:28;;;;;;;16.52;10.82;;;4.40;93.10;;;;;;4990667;28;20050;-70
2022/01/25 12:11:59;;;;;;;14.18;9.93;;;4.70;92.70;;;;;;4991337;28;20120;-70
2022/01/25 12:14:29;;;;;;;15.70;10.90;;;4.70;92.70;;;;;;4990147;28;20066;-70
2022/01/25 12:17:04;;;;;;;20.88;13.95;;;4.80;92.70;;;;;;4992991;28;20058;-70
2022/01/25 12:19:54;;;;;;;14.07;9.90;;;4.80;92.80;;;;;;4992069;28;20717;-70
2022/01/25 12:22:48;;;;;;;13.57;9.48;;;5.00;92.80;;;;;;4990154;28;20554;-70
2022/01/25 12:25:33;;;;;;;15.15;10.63;;;5.10;92.60;;;;;;4989534;28;20058;-70
2022/01/25 12:28:06;;;;;;;15.18;10.93;;;5.20;92.30;;;;;;4991050;28;20107;-70
2022/01/25 12:30:39;;;;;;;13.00;9.25;;;5.30;92.30;;;;;;4995512;28;20041;-70
2022/01/25 12:33:09;;;;;;;16.27;10.40;;;5.30;92.00;;;;;;5000197;28;20022;-70
2022/01/25 12:35:41;;;;;;;13.43;9.30;;;5.30;91.90;;;;;;5001116;28;20041;-69
2022/01/25 12:38:25;;;;;;;18.00;11.10;;;5.40;91.90;;;;;;4997222;28;20092;-70
2022/01/25 12:40:52;;;;;;;17.20;11.55;;;5.40;91.90;;;;;;5001314;28;20503;-69
2022/01/25 12:43:21;;;;;;;17.10;11.85;;;5.40;91.80;;;;;;4997907;28;20018;-70
2022/01/25 12:45:54;;;;;;;14.57;11.43;;;5.50;91.80;;;;;;5000337;28;20054;-70
2022/01/25 12:48:36;;;;;;;15.25;11.48;;;5.40;91.60;;;;;;4998721;28;20022;-69
2022/01/25 12:51:06;;;;;;;;;;;5.30;91.70;;;;;;4985353;28;20528;-70
2022/01/25 12:53:34;;;;;;;13.57;8.45;;;5.20;92.10;;;;;;4990943;28;19917;-69
2022/01/25 12:56:09;;;;;;;14.57;10.05;;;5.10;92.30;;;;;;4990810;28;20551;-70
2022/01/25 12:58:36;;;;;;;15.38;11.73;;;5.10;92.40;;;;;;4991530;28;20053;-70
2022/01/25 13:01:09;;;;;;;17.90;11.90;;;5.10;92.50;;;;;;4990937;28;20054;-70
2022/01/25 13:03:39;;;;;;;14.38;11.05;;;5.00;92.50;;;;;;4991042;28;20077;-70
2022/01/25 13:06:16;;;;;;;15.40;10.65;;;4.90;92.50;;;;;;4989696;28;20137;-70
2022/01/25 13:08:55;;;;;;;13.40;9.98;;;4.90;93.00;;;;;;4992695;28;20077;-70
2022/01/25 13:11:22;;;;;;;14.43;11.52;;;4.80;93.00;;;;;;4988254;28;20133;-69
2022/01/25 13:16:52;;;;;;;16.00;10.77;;;4.80;93.10;;;;;;4999227;28;20045;-70
2022/01/25 13:19:24;;;;;;;14.63;10.57;;;4.70;93.40;;;;;;4998532;28;20031;-70
2022/01/25 13:22:01;;;;;;;16.42;12.07;;;4.60;93.50;;;;;;5001126;28;20053;-70
2022/01/25 13:24:32;;;;;;;21.88;15.82;;;4.80;93.50;;;;;;4998504;28;20121;-70
2022/01/25 13:27:05;;;;;;;24.17;15.55;;;4.90;92.90;;;;;;4999934;28;20046;-70
2022/01/25 13:32:27;;;;;;;24.50;18.40;;;5.00;92.50;;;;;;4998448;28;20099;-69
2022/01/25 13:35:13;;;;;;;19.05;14.60;;;5.10;92.40;;;;;;4999476;28;20411;-69
2022/01/25 13:37:40;;;;;;;25.48;18.35;;;5.30;92.10;;;;;;5006573;28;20037;-70
2022/01/25 13:40:06;;;;;;;28.77;19.45;;;5.40;92.10;;;;;;5004726;28;20495;-70
2022/01/25 13:48:10;;;;;;;20.63;15.50;;;5.80;91.50;;;;;;5003387;28;20554;-69
2022/01/25 13:50:38;;;;;;;19.23;15.07;;;6.10;90.80;;;;;;5002533;28;20076;-68
2022/01/25 13:53:05;;;;;;;22.45;17.00;;;6.10;90.90;;;;;;5005679;28;20117;-69
2022/01/25 13:55:32;;;;;;;26.83;18.50;;;6.30;90.50;;;;;;5003346;28;20050;-72
2022/01/25 13:57:58;;;;;;;22.30;17.27;;;6.90;88.80;;;;;;5004589;28;20034;-72
2022/01/25 14:00:25;;;;;;;20.48;15.50;;;7.50;85.90;;;;;;5005855;28;20113;-73
2022/01/25 14:02:56;;;;;;;19.77;15.27;;;7.90;83.70;;;;;;5003990;28;20202;-72
2022/01/25 14:05:22;;;;;;;20.25;15.00;;;8.80;81.10;;;;;;5003860;28;20034;-70
2022/01/25 14:07:54;;;;;;;20.45;16.05;;;9.80;76.20;;;;;;5002936;28;20034;-70
2022/01/25 14:10:26;;;;;;;34.78;25.80;;;10.00;71.20;;;;;;4999063;28;20168;-70
2022/01/25 14:23:54;;;;;;;19.60;16.55;;;13.10;56.50;;;;;;4999086;28;20037;-70
2022/01/25 14:26:27;;;;;;;23.08;18.17;;;13.10;56.50;;;;;;5000442;28;20237;-69
2022/01/25 14:28:57;;;;;;;21.27;17.65;;;12.90;56.70;;;;;;5001309;28;20045;-72
2022/01/25 14:31:25;;;;;;;21.48;17.77;;;12.50;57.10;;;;;;5003122;28;20049;-70
2022/01/25 14:33:59;;;;;;;20.05;16.63;;;12.30;57.70;;;;;;5000522;28;20113;-69
2022/01/25 14:36:27;;;;;;;22.25;17.25;;;12.00;58.00;;;;;;5000692;28;20121;-69
2022/01/25 14:38:54;;;;;;;21.85;16.10;;;11.70;58.70;;;;;;5002013;28;20056;-69
2022/01/25 14:41:28;;;;;;;25.17;18.98;;;11.20;59.70;;;;;;5004034;28;20101;-70
2022/01/25 14:43:56;;;;;;;23.70;17.17;;;10.60;61.70;;;;;;5001451;28;20072;-70
2022/01/25 14:46:35;;;;;;;21.02;17.30;;;10.20;63.50;;;;;;5000445;28;20038;-70
2022/01/25 14:49:10;;;;;;;22.25;17.25;;;9.60;65.20;;;;;;5002759;28;20121;-69
2022/01/25 14:51:38;;;;;;;23.48;16.98;;;9.10;66.90;;;;;;5000424;28;20033;-70
2022/01/25 14:54:06;;;;;;;27.45;17.88;;;8.80;68.40;;;;;;5001204;28;20124;-69
2022/01/25 14:56:34;;;;;;;24.52;18.05;;;8.40;70.10;;;;;;5000888;28;20125;-68
2022/01/25 15:01:50;;;;;;;24.58;18.13;;;7.80;72.40;;;;;;4995365;28;20092;-69
2022/01/25 15:04:15;;;;;;;29.15;19.25;;;7.40;74.30;;;;;;5003442;28;20030;-70
2022/01/25 15:06:41;;;;;;;24.27;18.08;;;7.10;75.80;;;;;;4997067;28;20030;-70